sensor_id;sensor_type;location;lat;lon;timestamp;P1;durP1;ratioP1;P2;durP2;ratioP2
46377;SDS011;32083;47.360;9.650;2023-03-03T00:00:43;57.47;;;33.20;;
46377;SDS011;32083;47.360;9.650;2023-03-03T00:03:32;48.88;;;29.50;;
46377;SDS011;32083;47.360;9.650;2023-03-03T00:06:04;50.80;;;29.35;;
46377;SDS011;32083;47.360;9.650;2023-03-03T00:09:14;53.33;;;32.35;;
46377;SDS011;32083;47.360;9.650;2023-03-03T00:11:43;50.03;;;30.48;;
46377;SDS011;32083;47.360;9.650;2023-03-03T00:14:38;49.55;;;29.45;;
46377;SDS011;32083;47.360;9.650;2023-03-03T00:17:28;48.25;;;29.75;;
46377;SDS011;32083;47.360;9.650;2023-03-03T00:20:37;49.25;;;28.70;;
46377;SDS011;32083;47.360;9.650;2023-03-03T00:26:26;54.67;;;31.88;;
46377;SDS011;32083;47.360;9.650;2023-03-03T00:32:23;52.28;;;31.67;;
46377;SDS011;32083;47.360;9.650;2023-03-03T00:35:37;50.65;;;31.58;;
46377;SDS011;32083;47.360;9.650;2023-03-03T00:38:13;55.50;;;31.88;;
46377;SDS011;32083;47.360;9.650;2023-03-03T00:40:43;47.50;;;29.73;;
46377;SDS011;32083;47.360;9.650;2023-03-03T00:43:40;47.38;;;28.15;;
46377;SDS011;32083;47.360;9.650;2023-03-03T00:46:09;51.90;;;30.13;;
46377;SDS011;32083;47.360;9.650;2023-03-03T00:48:46;46.33;;;28.65;;
46377;SDS011;32083;47.360;9.650;2023-03-03T00:51:26;50.72;;;30.70;;
46377;SDS011;32083;47.360;9.650;2023-03-03T00:53:58;55.85;;;31.83;;
46377;SDS011;32083;47.360;9.650;2023-03-03T00:56:28;55.22;;;30.95;;
46377;SDS011;32083;47.360;9.650;2023-03-03T00:59:15;50.03;;;29.52;;
46377;SDS011;32083;47.360;9.650;2023-03-03T01:01:43;50.60;;;27.38;;
46377;SDS011;32083;47.360;9.650;2023-03-03T01:04:09;48.17;;;28.77;;
46377;SDS011;32083;47.360;9.650;2023-03-03T01:06:39;39.92;;;24.00;;
46377;SDS011;32083;47.360;9.650;2023-03-03T01:09:06;39.60;;;23.95;;
46377;SDS011;32083;47.360;9.650;2023-03-03T01:11:35;36.72;;;22.40;;
46377;SDS011;32083;47.360;9.650;2023-03-03T01:14:06;37.25;;;21.25;;
46377;SDS011;32083;47.360;9.650;2023-03-03T01:16:38;39.65;;;23.95;;
46377;SDS011;32083;47.360;9.650;2023-03-03T01:19:19;33.13;;;21.70;;
46377;SDS011;32083;47.360;9.650;2023-03-03T01:21:47;38.08;;;22.42;;
46377;SDS011;32083;47.360;9.650;2023-03-03T01:24:16;36.20;;;23.13;;
46377;SDS011;32083;47.360;9.650;2023-03-03T01:26:58;37.17;;;23.75;;
46377;SDS011;32083;47.360;9.650;2023-03-03T01:29:25;42.17;;;25.35;;
46377;SDS011;32083;47.360;9.650;2023-03-03T01:31:53;44.17;;;24.55;;
46377;SDS011;32083;47.360;9.650;2023-03-03T01:34:19;40.45;;;23.05;;
46377;SDS011;32083;47.360;9.650;2023-03-03T01:37:00;39.08;;;24.00;;
46377;SDS011;32083;47.360;9.650;2023-03-03T01:39:27;41.67;;;23.52;;
46377;SDS011;32083;47.360;9.650;2023-03-03T01:42:02;44.22;;;24.15;;
46377;SDS011;32083;47.360;9.650;2023-03-03T01:44:33;35.38;;;21.95;;
46377;SDS011;32083;47.360;9.650;2023-03-03T01:47:18;38.85;;;23.80;;
46377;SDS011;32083;47.360;9.650;2023-03-03T01:50:06;40.00;;;23.92;;
46377;SDS011;32083;47.360;9.650;2023-03-03T01:52:40;37.92;;;21.88;;
46377;SDS011;32083;47.360;9.650;2023-03-03T01:55:19;42.05;;;24.65;;
46377;SDS011;32083;47.360;9.650;2023-03-03T01:58:10;46.17;;;24.38;;
46377;SDS011;32083;47.360;9.650;2023-03-03T02:00:38;37.80;;;25.08;;
46377;SDS011;32083;47.360;9.650;2023-03-03T02:03:36;42.20;;;24.27;;
46377;SDS011;32083;47.360;9.650;2023-03-03T02:06:03;43.25;;;25.38;;
46377;SDS011;32083;47.360;9.650;2023-03-03T02:09:11;44.65;;;26.20;;
46377;SDS011;32083;47.360;9.650;2023-03-03T02:11:44;41.65;;;24.50;;
46377;SDS011;32083;47.360;9.650;2023-03-03T02:14:23;44.25;;;25.50;;
46377;SDS011;32083;47.360;9.650;2023-03-03T02:16:56;45.65;;;26.38;;
46377;SDS011;32083;47.360;9.650;2023-03-03T02:23:19;47.67;;;25.83;;
46377;SDS011;32083;47.360;9.650;2023-03-03T02:26:23;43.22;;;25.63;;
46377;SDS011;32083;47.360;9.650;2023-03-03T02:29:19;45.25;;;25.63;;
46377;SDS011;32083;47.360;9.650;2023-03-03T02:32:09;42.45;;;25.23;;
46377;SDS011;32083;47.360;9.650;2023-03-03T02:37:01;45.63;;;25.83;;
46377;SDS011;32083;47.360;9.650;2023-03-03T02:39:31;43.22;;;26.50;;
46377;SDS011;32083;47.360;9.650;2023-03-03T02:42:28;39.92;;;24.95;;
46377;SDS011;32083;47.360;9.650;2023-03-03T02:45:13;41.22;;;24.00;;
46377;SDS011;32083;47.360;9.650;2023-03-03T02:47:48;50.58;;;27.33;;
46377;SDS011;32083;47.360;9.650;2023-03-03T02:50:23;44.25;;;28.13;;
46377;SDS011;32083;47.360;9.650;2023-03-03T02:52:50;45.20;;;26.48;;
46377;SDS011;32083;47.360;9.650;2023-03-03T02:55:18;42.45;;;27.35;;
46377;SDS011;32083;47.360;9.650;2023-03-03T02:57:45;48.53;;;28.83;;
46377;SDS011;32083;47.360;9.650;2023-03-03T03:00:14;45.33;;;27.67;;
46377;SDS011;32083;47.360;9.650;2023-03-03T03:05:27;39.75;;;25.50;;
46377;SDS011;32083;47.360;9.650;2023-03-03T03:07:53;50.15;;;27.90;;
46377;SDS011;32083;47.360;9.650;2023-03-03T03:10:19;45.75;;;28.33;;
46377;SDS011;32083;47.360;9.650;2023-03-03T03:13:02;50.85;;;27.83;;
46377;SDS011;32083;47.360;9.650;2023-03-03T03:15:36;47.25;;;27.38;;
46377;SDS011;32083;47.360;9.650;2023-03-03T03:18:02;43.88;;;28.27;;
46377;SDS011;32083;47.360;9.650;2023-03-03T03:20:28;44.95;;;27.08;;
46377;SDS011;32083;47.360;9.650;2023-03-03T03:23:07;46.63;;;26.05;;
46377;SDS011;32083;47.360;9.650;2023-03-03T03:26:00;48.80;;;28.80;;
46377;SDS011;32083;47.360;9.650;2023-03-03T03:28:29;53.10;;;29.25;;
46377;SDS011;32083;47.360;9.650;2023-03-03T03:34:00;50.03;;;30.95;;
46377;SDS011;32083;47.360;9.650;2023-03-03T03:36:29;46.20;;;27.95;;
46377;SDS011;32083;47.360;9.650;2023-03-03T03:38:55;42.25;;;27.83;;
46377;SDS011;32083;47.360;9.650;2023-03-03T03:41:35;48.63;;;28.50;;
46377;SDS011;32083;47.360;9.650;2023-03-03T03:44:30;46.50;;;26.33;;
46377;SDS011;32083;47.360;9.650;2023-03-03T03:46:58;50.60;;;30.10;;
46377;SDS011;32083;47.360;9.650;2023-03-03T03:49:31;47.80;;;27.27;;
46377;SDS011;32083;47.360;9.650;2023-03-03T03:52:01;46.53;;;28.48;;
46377;SDS011;32083;47.360;9.650;2023-03-03T03:54:32;53.72;;;29.25;;
46377;SDS011;32083;47.360;9.650;2023-03-03T03:57:38;47.58;;;28.45;;
46377;SDS011;32083;47.360;9.650;2023-03-03T04:00:04;57.28;;;32.47;;
46377;SDS011;32083;47.360;9.650;2023-03-03T04:02:35;50.25;;;30.38;;
46377;SDS011;32083;47.360;9.650;2023-03-03T04:05:02;50.17;;;30.27;;
46377;SDS011;32083;47.360;9.650;2023-03-03T04:07:29;51.88;;;29.10;;
46377;SDS011;32083;47.360;9.650;2023-03-03T04:09:55;56.63;;;30.92;;
46377;SDS011;32083;47.360;9.650;2023-03-03T04:12:29;47.47;;;27.23;;
46377;SDS011;32083;47.360;9.650;2023-03-03T04:15:16;49.83;;;29.00;;
46377;SDS011;32083;47.360;9.650;2023-03-03T04:18:02;52.55;;;29.52;;
46377;SDS011;32083;47.360;9.650;2023-03-03T04:20:50;54.00;;;30.33;;
46377;SDS011;32083;47.360;9.650;2023-03-03T04:23:18;48.92;;;29.60;;
46377;SDS011;32083;47.360;9.650;2023-03-03T04:25:50;50.10;;;29.88;;
46377;SDS011;32083;47.360;9.650;2023-03-03T04:28:17;47.05;;;28.17;;
46377;SDS011;32083;47.360;9.650;2023-03-03T04:30:54;49.22;;;27.77;;
46377;SDS011;32083;47.360;9.650;2023-03-03T04:33:22;50.70;;;30.10;;
46377;SDS011;32083;47.360;9.650;2023-03-03T04:35:52;50.97;;;28.50;;
46377;SDS011;32083;47.360;9.650;2023-03-03T04:38:22;51.85;;;29.35;;
46377;SDS011;32083;47.360;9.650;2023-03-03T04:41:02;44.33;;;28.20;;
46377;SDS011;32083;47.360;9.650;2023-03-03T04:43:35;52.42;;;29.08;;
46377;SDS011;32083;47.360;9.650;2023-03-03T04:46:04;42.53;;;26.17;;
46377;SDS011;32083;47.360;9.650;2023-03-03T04:48:36;52.45;;;28.85;;
46377;SDS011;32083;47.360;9.650;2023-03-03T04:51:03;48.13;;;27.65;;
46377;SDS011;32083;47.360;9.650;2023-03-03T04:53:29;51.83;;;29.35;;
46377;SDS011;32083;47.360;9.650;2023-03-03T04:56:00;47.97;;;29.55;;
46377;SDS011;32083;47.360;9.650;2023-03-03T04:58:31;47.88;;;28.65;;
46377;SDS011;32083;47.360;9.650;2023-03-03T05:01:19;52.38;;;31.95;;
46377;SDS011;32083;47.360;9.650;2023-03-03T05:03:50;53.13;;;31.55;;
46377;SDS011;32083;47.360;9.650;2023-03-03T05:06:32;51.97;;;28.77;;
46377;SDS011;32083;47.360;9.650;2023-03-03T05:08:58;54.00;;;29.80;;
46377;SDS011;32083;47.360;9.650;2023-03-03T05:11:25;53.75;;;31.27;;
46377;SDS011;32083;47.360;9.650;2023-03-03T05:13:54;55.13;;;32.55;;
46377;SDS011;32083;47.360;9.650;2023-03-03T05:16:22;50.00;;;29.58;;
46377;SDS011;32083;47.360;9.650;2023-03-03T05:18:51;51.53;;;29.48;;
46377;SDS011;32083;47.360;9.650;2023-03-03T05:21:37;52.28;;;29.15;;
46377;SDS011;32083;47.360;9.650;2023-03-03T05:24:10;51.63;;;28.55;;
46377;SDS011;32083;47.360;9.650;2023-03-03T05:26:45;46.72;;;30.45;;
46377;SDS011;32083;47.360;9.650;2023-03-03T05:29:20;51.50;;;30.30;;
46377;SDS011;32083;47.360;9.650;2023-03-03T05:31:48;53.33;;;31.38;;
46377;SDS011;32083;47.360;9.650;2023-03-03T05:34:17;50.35;;;29.63;;
46377;SDS011;32083;47.360;9.650;2023-03-03T05:36:45;47.55;;;27.90;;
46377;SDS011;32083;47.360;9.650;2023-03-03T05:39:15;51.80;;;30.08;;
46377;SDS011;32083;47.360;9.650;2023-03-03T05:41:45;50.30;;;30.55;;
46377;SDS011;32083;47.360;9.650;2023-03-03T05:44:10;56.05;;;33.22;;
46377;SDS011;32083;47.360;9.650;2023-03-03T05:46:45;57.97;;;33.67;;
46377;SDS011;32083;47.360;9.650;2023-03-03T05:49:14;61.97;;;34.15;;
46377;SDS011;32083;47.360;9.650;2023-03-03T05:51:40;53.92;;;32.50;;
46377;SDS011;32083;47.360;9.650;2023-03-03T05:54:12;56.78;;;34.45;;
46377;SDS011;32083;47.360;9.650;2023-03-03T05:56:43;55.78;;;34.55;;
46377;SDS011;32083;47.360;9.650;2023-03-03T05:59:16;55.88;;;32.22;;
46377;SDS011;32083;47.360;9.650;2023-03-03T06:02:08;58.60;;;33.90;;
46377;SDS011;32083;47.360;9.650;2023-03-03T06:08:24;51.10;;;31.67;;
46377;SDS011;32083;47.360;9.650;2023-03-03T06:10:49;58.83;;;33.55;;
46377;SDS011;32083;47.360;9.650;2023-03-03T06:13:35;51.70;;;31.30;;
46377;SDS011;32083;47.360;9.650;2023-03-03T06:16:42;51.80;;;31.30;;
46377;SDS011;32083;47.360;9.650;2023-03-03T06:19:14;57.13;;;33.03;;
46377;SDS011;32083;47.360;9.650;2023-03-03T06:22:32;53.63;;;31.20;;
46377;SDS011;32083;47.360;9.650;2023-03-03T06:24:59;55.33;;;31.90;;
46377;SDS011;32083;47.360;9.650;2023-03-03T06:27:28;57.17;;;32.80;;
46377;SDS011;32083;47.360;9.650;2023-03-03T06:30:36;56.47;;;32.47;;
46377;SDS011;32083;47.360;9.650;2023-03-03T06:33:09;49.28;;;30.55;;
46377;SDS011;32083;47.360;9.650;2023-03-03T06:35:35;57.08;;;33.45;;
46377;SDS011;32083;47.360;9.650;2023-03-03T06:38:02;50.38;;;32.17;;
46377;SDS011;32083;47.360;9.650;2023-03-03T06:40:28;56.00;;;31.95;;
46377;SDS011;32083;47.360;9.650;2023-03-03T06:42:54;54.08;;;31.85;;
46377;SDS011;32083;47.360;9.650;2023-03-03T06:45:20;51.08;;;32.67;;
46377;SDS011;32083;47.360;9.650;2023-03-03T06:47:46;59.90;;;34.70;;
46377;SDS011;32083;47.360;9.650;2023-03-03T06:50:11;54.53;;;36.17;;
46377;SDS011;32083;47.360;9.650;2023-03-03T06:52:37;54.78;;;34.22;;
46377;SDS011;32083;47.360;9.650;2023-03-03T06:55:15;59.38;;;35.95;;
46377;SDS011;32083;47.360;9.650;2023-03-03T06:57:47;58.80;;;36.30;;
46377;SDS011;32083;47.360;9.650;2023-03-03T07:05:17;50.75;;;29.30;;
46377;SDS011;32083;47.360;9.650;2023-03-03T07:07:43;57.58;;;31.23;;
46377;SDS011;32083;47.360;9.650;2023-03-03T07:12:48;53.10;;;34.30;;
46377;SDS011;32083;47.360;9.650;2023-03-03T07:17:43;57.15;;;33.42;;
46377;SDS011;32083;47.360;9.650;2023-03-03T07:22:48;54.47;;;33.13;;
46377;SDS011;32083;47.360;9.650;2023-03-03T07:25:33;56.55;;;35.58;;
46377;SDS011;32083;47.360;9.650;2023-03-03T07:28:06;62.08;;;34.40;;
46377;SDS011;32083;47.360;9.650;2023-03-03T07:30:56;57.85;;;34.22;;
46377;SDS011;32083;47.360;9.650;2023-03-03T07:33:27;61.60;;;36.22;;
46377;SDS011;32083;47.360;9.650;2023-03-03T07:35:56;60.10;;;36.23;;
46377;SDS011;32083;47.360;9.650;2023-03-03T07:41:03;54.15;;;32.78;;
46377;SDS011;32083;47.360;9.650;2023-03-03T07:43:47;46.85;;;29.42;;
46377;SDS011;32083;47.360;9.650;2023-03-03T07:51:55;47.20;;;28.83;;
46377;SDS011;32083;47.360;9.650;2023-03-03T07:54:26;50.70;;;29.38;;
46377;SDS011;32083;47.360;9.650;2023-03-03T07:57:18;53.58;;;31.38;;
46377;SDS011;32083;47.360;9.650;2023-03-03T07:59:52;49.55;;;30.33;;
46377;SDS011;32083;47.360;9.650;2023-03-03T08:04:57;44.63;;;28.80;;
46377;SDS011;32083;47.360;9.650;2023-03-03T08:07:23;47.53;;;30.83;;
46377;SDS011;32083;47.360;9.650;2023-03-03T08:09:59;49.10;;;29.15;;
46377;SDS011;32083;47.360;9.650;2023-03-03T08:15:12;50.28;;;30.40;;
46377;SDS011;32083;47.360;9.650;2023-03-03T08:17:42;46.97;;;28.05;;
46377;SDS011;32083;47.360;9.650;2023-03-03T08:23:06;44.92;;;29.30;;
46377;SDS011;32083;47.360;9.650;2023-03-03T08:25:32;48.47;;;28.75;;
46377;SDS011;32083;47.360;9.650;2023-03-03T08:27:58;73.18;;;34.15;;
46377;SDS011;32083;47.360;9.650;2023-03-03T08:30:24;49.75;;;31.08;;
46377;SDS011;32083;47.360;9.650;2023-03-03T08:33:11;45.88;;;28.63;;
46377;SDS011;32083;47.360;9.650;2023-03-03T08:44:58;43.92;;;28.77;;
46377;SDS011;32083;47.360;9.650;2023-03-03T08:47:24;48.88;;;30.70;;
46377;SDS011;32083;47.360;9.650;2023-03-03T08:56:41;50.22;;;30.58;;
46377;SDS011;32083;47.360;9.650;2023-03-03T08:59:46;48.47;;;28.85;;
46377;SDS011;32083;47.360;9.650;2023-03-03T09:02:22;44.75;;;29.20;;
46377;SDS011;32083;47.360;9.650;2023-03-03T09:19:56;60.67;;;30.35;;
46377;SDS011;32083;47.360;9.650;2023-03-03T09:22:24;48.85;;;30.70;;
46377;SDS011;32083;47.360;9.650;2023-03-03T09:24:53;48.83;;;26.88;;
46377;SDS011;32083;47.360;9.650;2023-03-03T09:27:29;45.88;;;30.80;;
46377;SDS011;32083;47.360;9.650;2023-03-03T09:30:02;45.88;;;29.63;;
46377;SDS011;32083;47.360;9.650;2023-03-03T09:32:56;48.88;;;29.65;;
46377;SDS011;32083;47.360;9.650;2023-03-03T09:35:26;43.30;;;28.17;;
46377;SDS011;32083;47.360;9.650;2023-03-03T09:49:34;49.50;;;31.08;;
46377;SDS011;32083;47.360;9.650;2023-03-03T10:00:27;40.90;;;25.60;;
46377;SDS011;32083;47.360;9.650;2023-03-03T10:08:45;48.40;;;28.67;;
46377;SDS011;32083;47.360;9.650;2023-03-03T10:11:34;43.80;;;26.50;;
46377;SDS011;32083;47.360;9.650;2023-03-03T10:14:12;42.70;;;26.13;;
46377;SDS011;32083;47.360;9.650;2023-03-03T10:28:09;43.33;;;25.58;;
46377;SDS011;32083;47.360;9.650;2023-03-03T10:44:25;43.42;;;26.35;;
46377;SDS011;32083;47.360;9.650;2023-03-03T10:47:30;44.20;;;28.13;;
46377;SDS011;32083;47.360;9.650;2023-03-03T10:52:49;45.85;;;28.30;;
46377;SDS011;32083;47.360;9.650;2023-03-03T11:00:30;42.08;;;29.30;;
46377;SDS011;32083;47.360;9.650;2023-03-03T11:06:04;44.67;;;30.23;;
46377;SDS011;32083;47.360;9.650;2023-03-03T11:14:17;46.97;;;28.60;;
46377;SDS011;32083;47.360;9.650;2023-03-03T11:22:30;39.33;;;27.05;;
46377;SDS011;32083;47.360;9.650;2023-03-03T11:30:32;49.95;;;29.13;;
46377;SDS011;32083;47.360;9.650;2023-03-03T11:36:06;41.13;;;28.20;;
46377;SDS011;32083;47.360;9.650;2023-03-03T11:41:35;41.00;;;27.65;;
46377;SDS011;32083;47.360;9.650;2023-03-03T12:06:31;40.90;;;27.48;;
46377;SDS011;32083;47.360;9.650;2023-03-03T12:09:18;50.38;;;29.45;;
46377;SDS011;32083;47.360;9.650;2023-03-03T12:14:45;49.92;;;30.92;;
46377;SDS011;32083;47.360;9.650;2023-03-03T12:19:53;51.08;;;31.73;;
46377;SDS011;32083;47.360;9.650;2023-03-03T12:28:29;46.42;;;29.02;;
46377;SDS011;32083;47.360;9.650;2023-03-03T12:44:13;48.47;;;31.27;;
46377;SDS011;32083;47.360;9.650;2023-03-03T12:46:56;49.53;;;31.65;;
46377;SDS011;32083;47.360;9.650;2023-03-03T13:01:36;45.90;;;30.27;;
46377;SDS011;32083;47.360;9.650;2023-03-03T13:06:42;52.47;;;31.98;;
46377;SDS011;32083;47.360;9.650;2023-03-03T13:14:49;45.97;;;28.50;;
46377;SDS011;32083;47.360;9.650;2023-03-03T13:17:27;47.50;;;28.45;;
46377;SDS011;32083;47.360;9.650;2023-03-03T13:20:21;50.85;;;32.63;;
46377;SDS011;32083;47.360;9.650;2023-03-03T13:31:50;52.78;;;32.10;;
46377;SDS011;32083;47.360;9.650;2023-03-03T13:37:01;54.85;;;33.90;;
46377;SDS011;32083;47.360;9.650;2023-03-03T13:40:04;50.90;;;30.58;;
46377;SDS011;32083;47.360;9.650;2023-03-03T13:42:49;48.53;;;32.80;;
46377;SDS011;32083;47.360;9.650;2023-03-03T13:45:24;48.40;;;32.90;;
46377;SDS011;32083;47.360;9.650;2023-03-03T13:54:15;47.50;;;30.45;;
46377;SDS011;32083;47.360;9.650;2023-03-03T13:59:46;53.15;;;32.03;;
46377;SDS011;32083;47.360;9.650;2023-03-03T14:24:29;56.50;;;35.83;;
46377;SDS011;32083;47.360;9.650;2023-03-03T14:26:57;55.70;;;36.08;;
46377;SDS011;32083;47.360;9.650;2023-03-03T14:34:29;50.85;;;32.90;;
46377;SDS011;32083;47.360;9.650;2023-03-03T14:37:07;57.05;;;35.85;;
46377;SDS011;32083;47.360;9.650;2023-03-03T14:42:48;55.22;;;35.28;;
46377;SDS011;32083;47.360;9.650;2023-03-03T14:45:38;55.95;;;34.45;;
46377;SDS011;32083;47.360;9.650;2023-03-03T14:50:42;53.97;;;34.63;;
46377;SDS011;32083;47.360;9.650;2023-03-03T14:55:47;58.42;;;35.08;;
46377;SDS011;32083;47.360;9.650;2023-03-03T14:58:29;55.75;;;35.92;;
46377;SDS011;32083;47.360;9.650;2023-03-03T15:04:32;58.40;;;34.47;;
46377;SDS011;32083;47.360;9.650;2023-03-03T15:12:25;51.47;;;34.17;;
46377;SDS011;32083;47.360;9.650;2023-03-03T15:20:17;56.08;;;33.88;;
46377;SDS011;32083;47.360;9.650;2023-03-03T15:26:08;60.35;;;35.17;;
46377;SDS011;32083;47.360;9.650;2023-03-03T15:31:36;59.45;;;35.53;;
46377;SDS011;32083;47.360;9.650;2023-03-03T15:40:16;61.08;;;37.13;;
46377;SDS011;32083;47.360;9.650;2023-03-03T15:42:59;64.47;;;36.67;;
46377;SDS011;32083;47.360;9.650;2023-03-03T15:45:35;62.00;;;38.92;;
46377;SDS011;32083;47.360;9.650;2023-03-03T15:51:10;58.00;;;36.40;;
46377;SDS011;32083;47.360;9.650;2023-03-03T15:56:55;63.83;;;38.78;;
46377;SDS011;32083;47.360;9.650;2023-03-03T16:06:28;63.75;;;37.13;;
46377;SDS011;32083;47.360;9.650;2023-03-03T16:11:46;53.72;;;35.80;;
46377;SDS011;32083;47.360;9.650;2023-03-03T16:22:44;58.33;;;37.28;;
46377;SDS011;32083;47.360;9.650;2023-03-03T16:28:24;63.30;;;39.63;;
46377;SDS011;32083;47.360;9.650;2023-03-03T16:34:00;68.35;;;38.92;;
46377;SDS011;32083;47.360;9.650;2023-03-03T16:42:24;61.90;;;40.72;;
46377;SDS011;32083;47.360;9.650;2023-03-03T16:47:49;62.10;;;36.90;;
46377;SDS011;32083;47.360;9.650;2023-03-03T16:58:32;60.17;;;39.80;;
46377;SDS011;32083;47.360;9.650;2023-03-03T17:10:53;60.45;;;38.88;;
46377;SDS011;32083;47.360;9.650;2023-03-03T17:13:23;57.58;;;38.72;;
46377;SDS011;32083;47.360;9.650;2023-03-03T17:25:18;63.72;;;40.08;;
46377;SDS011;32083;47.360;9.650;2023-03-03T17:36:27;67.63;;;41.58;;
46377;SDS011;32083;47.360;9.650;2023-03-03T17:41:53;69.82;;;42.60;;
46377;SDS011;32083;47.360;9.650;2023-03-03T17:44:45;74.68;;;45.50;;
46377;SDS011;32083;47.360;9.650;2023-03-03T17:47:39;64.65;;;43.78;;
46377;SDS011;32083;47.360;9.650;2023-03-03T17:50:35;66.70;;;41.90;;
46377;SDS011;32083;47.360;9.650;2023-03-03T17:53:23;70.18;;;42.28;;
46377;SDS011;32083;47.360;9.650;2023-03-03T18:19:02;61.05;;;38.47;;
46377;SDS011;32083;47.360;9.650;2023-03-03T18:26:54;59.60;;;38.28;;
46377;SDS011;32083;47.360;9.650;2023-03-03T18:29:22;58.55;;;36.65;;
46377;SDS011;32083;47.360;9.650;2023-03-03T18:36:53;61.28;;;37.45;;
46377;SDS011;32083;47.360;9.650;2023-03-03T18:44:44;61.50;;;37.15;;
46377;SDS011;32083;47.360;9.650;2023-03-03T18:47:13;59.53;;;39.65;;
46377;SDS011;32083;47.360;9.650;2023-03-03T18:49:49;67.13;;;39.85;;
46377;SDS011;32083;47.360;9.650;2023-03-03T18:52:37;57.53;;;37.40;;
46377;SDS011;32083;47.360;9.650;2023-03-03T18:55:23;63.78;;;42.10;;
46377;SDS011;32083;47.360;9.650;2023-03-03T19:00:50;69.38;;;39.63;;
46377;SDS011;32083;47.360;9.650;2023-03-03T19:06:12;61.03;;;38.03;;
46377;SDS011;32083;47.360;9.650;2023-03-03T19:08:54;65.32;;;38.53;;
46377;SDS011;32083;47.360;9.650;2023-03-03T19:16:41;60.15;;;39.65;;
46377;SDS011;32083;47.360;9.650;2023-03-03T19:19:18;63.42;;;39.75;;
46377;SDS011;32083;47.360;9.650;2023-03-03T19:25:02;60.92;;;38.45;;
46377;SDS011;32083;47.360;9.650;2023-03-03T19:30:24;66.75;;;41.22;;
46377;SDS011;32083;47.360;9.650;2023-03-03T19:35:48;64.35;;;39.78;;
46377;SDS011;32083;47.360;9.650;2023-03-03T19:38:20;62.08;;;39.38;;
46377;SDS011;32083;47.360;9.650;2023-03-03T19:43:21;60.83;;;39.05;;
46377;SDS011;32083;47.360;9.650;2023-03-03T19:45:59;64.30;;;40.95;;
46377;SDS011;32083;47.360;9.650;2023-03-03T19:56:54;70.22;;;42.53;;
46377;SDS011;32083;47.360;9.650;2023-03-03T20:05:35;64.07;;;40.83;;
46377;SDS011;32083;47.360;9.650;2023-03-03T20:13:31;70.97;;;45.33;;
46377;SDS011;32083;47.360;9.650;2023-03-03T20:25:01;68.57;;;42.25;;
46377;SDS011;32083;47.360;9.650;2023-03-03T20:30:21;64.45;;;41.95;;
46377;SDS011;32083;47.360;9.650;2023-03-03T20:35:32;63.53;;;41.15;;
46377;SDS011;32083;47.360;9.650;2023-03-03T20:38:22;62.70;;;39.55;;
46377;SDS011;32083;47.360;9.650;2023-03-03T20:55:21;71.20;;;42.53;;
46377;SDS011;32083;47.360;9.650;2023-03-03T20:58:13;63.88;;;40.42;;
46377;SDS011;32083;47.360;9.650;2023-03-03T21:01:04;67.38;;;41.25;;
46377;SDS011;32083;47.360;9.650;2023-03-03T21:03:37;65.70;;;43.45;;
46377;SDS011;32083;47.360;9.650;2023-03-03T21:13:55;65.07;;;40.17;;
46377;SDS011;32083;47.360;9.650;2023-03-03T21:18:58;67.88;;;43.58;;
46377;SDS011;32083;47.360;9.650;2023-03-03T21:24:01;66.03;;;44.35;;
46377;SDS011;32083;47.360;9.650;2023-03-03T21:32:05;68.68;;;43.80;;
46377;SDS011;32083;47.360;9.650;2023-03-03T21:34:39;73.88;;;47.28;;
46377;SDS011;32083;47.360;9.650;2023-03-03T21:39:40;68.90;;;43.45;;
46377;SDS011;32083;47.360;9.650;2023-03-03T21:47:15;75.55;;;48.35;;
46377;SDS011;32083;47.360;9.650;2023-03-03T21:49:46;115.88;;;71.00;;
46377;SDS011;32083;47.360;9.650;2023-03-03T21:52:14;80.88;;;48.83;;
46377;SDS011;32083;47.360;9.650;2023-03-03T21:54:45;82.18;;;45.80;;
46377;SDS011;32083;47.360;9.650;2023-03-03T21:57:12;78.70;;;47.97;;
46377;SDS011;32083;47.360;9.650;2023-03-03T21:59:38;68.35;;;45.67;;
46377;SDS011;32083;47.360;9.650;2023-03-03T22:02:04;76.30;;;48.95;;
46377;SDS011;32083;47.360;9.650;2023-03-03T22:04:31;70.93;;;43.95;;
46377;SDS011;32083;47.360;9.650;2023-03-03T22:06:57;73.22;;;45.30;;
46377;SDS011;32083;47.360;9.650;2023-03-03T22:09:23;71.43;;;44.20;;
46377;SDS011;32083;47.360;9.650;2023-03-03T22:11:49;75.75;;;47.40;;
46377;SDS011;32083;47.360;9.650;2023-03-03T22:14:15;68.63;;;43.67;;
46377;SDS011;32083;47.360;9.650;2023-03-03T22:16:41;77.40;;;48.00;;
46377;SDS011;32083;47.360;9.650;2023-03-03T22:19:07;67.82;;;43.33;;
46377;SDS011;32083;47.360;9.650;2023-03-03T22:21:33;70.03;;;43.72;;
46377;SDS011;32083;47.360;9.650;2023-03-03T22:24:00;70.65;;;44.05;;
46377;SDS011;32083;47.360;9.650;2023-03-03T22:26:26;70.53;;;46.55;;
46377;SDS011;32083;47.360;9.650;2023-03-03T22:28:52;73.38;;;44.83;;
46377;SDS011;32083;47.360;9.650;2023-03-03T22:31:18;67.40;;;43.88;;
46377;SDS011;32083;47.360;9.650;2023-03-03T22:33:44;63.90;;;41.15;;
46377;SDS011;32083;47.360;9.650;2023-03-03T22:36:11;70.88;;;44.83;;
46377;SDS011;32083;47.360;9.650;2023-03-03T22:38:38;71.65;;;45.20;;
46377;SDS011;32083;47.360;9.650;2023-03-03T22:41:04;62.45;;;40.40;;
46377;SDS011;32083;47.360;9.650;2023-03-03T22:43:30;71.82;;;42.17;;
46377;SDS011;32083;47.360;9.650;2023-03-03T22:45:58;66.45;;;41.58;;
46377;SDS011;32083;47.360;9.650;2023-03-03T22:48:25;69.45;;;42.10;;
46377;SDS011;32083;47.360;9.650;2023-03-03T22:50:52;62.72;;;40.58;;
46377;SDS011;32083;47.360;9.650;2023-03-03T22:53:19;69.45;;;44.72;;
46377;SDS011;32083;47.360;9.650;2023-03-03T22:55:46;60.72;;;39.70;;
46377;SDS011;32083;47.360;9.650;2023-03-03T22:58:12;65.90;;;42.00;;
46377;SDS011;32083;47.360;9.650;2023-03-03T23:00:38;67.03;;;42.60;;
46377;SDS011;32083;47.360;9.650;2023-03-03T23:03:09;64.53;;;42.60;;
46377;SDS011;32083;47.360;9.650;2023-03-03T23:05:36;66.60;;;41.95;;
46377;SDS011;32083;47.360;9.650;2023-03-03T23:08:03;68.10;;;41.33;;
46377;SDS011;32083;47.360;9.650;2023-03-03T23:10:30;65.55;;;42.25;;
46377;SDS011;32083;47.360;9.650;2023-03-03T23:12:56;70.43;;;41.67;;
46377;SDS011;32083;47.360;9.650;2023-03-03T23:15:22;67.85;;;42.88;;
46377;SDS011;32083;47.360;9.650;2023-03-03T23:17:48;66.38;;;41.30;;
46377;SDS011;32083;47.360;9.650;2023-03-03T23:20:15;69.20;;;42.03;;
46377;SDS011;32083;47.360;9.650;2023-03-03T23:22:46;67.60;;;44.22;;
46377;SDS011;32083;47.360;9.650;2023-03-03T23:25:12;65.88;;;39.60;;
46377;SDS011;32083;47.360;9.650;2023-03-03T23:27:39;65.70;;;38.92;;
46377;SDS011;32083;47.360;9.650;2023-03-03T23:30:06;68.43;;;41.53;;
46377;SDS011;32083;47.360;9.650;2023-03-03T23:32:33;63.58;;;39.35;;
46377;SDS011;32083;47.360;9.650;2023-03-03T23:34:59;64.88;;;38.85;;
46377;SDS011;32083;47.360;9.650;2023-03-03T23:37:25;63.13;;;40.42;;
46377;SDS011;32083;47.360;9.650;2023-03-03T23:39:51;67.35;;;41.38;;
46377;SDS011;32083;47.360;9.650;2023-03-03T23:42:17;67.00;;;42.95;;
46377;SDS011;32083;47.360;9.650;2023-03-03T23:44:43;66.25;;;41.70;;
46377;SDS011;32083;47.360;9.650;2023-03-03T23:47:09;72.13;;;42.13;;
46377;SDS011;32083;47.360;9.650;2023-03-03T23:49:36;68.47;;;42.80;;
46377;SDS011;32083;47.360;9.650;2023-03-03T23:52:02;67.85;;;41.25;;